Time;durP1;ratioP1;P1;durP2;ratioP2;P2;SDS_P1;SDS_P2;PMS_P1;PMS_P2;Temp;Humidity;BMP_temperature;BMP_pressure;BME280_temperature;BME280_humidity;BME280_pressure;Samples;Min_cycle;Max_cycle;Signal;HPM_P1;HPM_P2
2023/08/10 00:00:54;;;;;;;2.47;1.13;;;19.10;65.10;;;;;;4898318;29;20028;-78
2023/08/10 00:03:19;;;;;;;1.15;1.05;;;19.10;65.10;;;;;;4897420;29;20059;-78
2023/08/10 00:05:45;;;;;;;1.73;1.10;;;19.10;65.20;;;;;;4897720;29;20422;-78
2023/08/10 00:08:11;;;;;;;1.77;1.10;;;19.10;65.30;;;;;;4896920;29;20063;-78
2023/08/10 00:10:37;;;;;;;2.63;1.38;;;19.10;65.30;;;;;;4913231;29;20079;-78
2023/08/10 00:13:03;;;;;;;1.35;1.10;;;19.00;65.30;;;;;;4900832;29;20040;-78
2023/08/10 00:15:29;;;;;;;1.88;1.23;;;19.00;65.30;;;;;;4885308;29;20040;-78
2023/08/10 00:17:56;;;;;;;1.60;1.10;;;19.00;65.40;;;;;;4916376;29;20036;-78
2023/08/10 00:20:21;;;;;;;1.77;1.33;;;19.00;65.40;;;;;;4901091;29;20482;-78
2023/08/10 00:22:47;;;;;;;1.30;1.08;;;19.00;65.50;;;;;;4900687;29;20037;-78
2023/08/10 00:25:13;;;;;;;2.33;1.27;;;18.90;65.50;;;;;;4885381;29;20482;-78
2023/08/10 00:27:39;;;;;;;1.35;1.15;;;19.00;65.50;;;;;;4900609;29;20490;-78
2023/08/10 00:30:06;;;;;;;1.48;1.33;;;18.90;65.50;;;;;;4900646;29;20044;-78
2023/08/10 00:32:32;;;;;;;1.15;1.08;;;18.90;65.50;;;;;;4900522;29;20494;-78
2023/08/10 00:34:58;;;;;;;1.92;1.20;;;18.90;65.60;;;;;;4900848;29;20037;-79
2023/08/10 00:37:24;;;;;;;1.30;1.20;;;18.90;65.60;;;;;;4900542;29;20064;-78
2023/08/10 00:39:50;;;;;;;1.30;1.20;;;18.90;66.30;;;;;;4884928;29;20025;-78
2023/08/10 00:42:15;;;;;;;1.80;1.10;;;18.90;65.70;;;;;;4900330;29;20471;-78
2023/08/10 00:44:41;;;;;;;1.30;1.20;;;18.90;65.70;;;;;;4900544;29;20045;-78
2023/08/10 00:47:08;;;;;;;1.45;1.10;;;18.90;65.80;;;;;;4900333;29;20522;-78
2023/08/10 00:49:34;;;;;;;1.45;1.10;;;18.90;65.80;;;;;;4899941;29;20123;-78
2023/08/10 00:52:00;;;;;;;1.38;1.10;;;18.80;65.80;;;;;;4900541;29;20040;-78
2023/08/10 00:54:26;;;;;;;1.55;1.23;;;18.90;65.90;;;;;;4884609;29;20430;-78
2023/08/10 00:56:52;;;;;;;1.27;1.15;;;18.80;65.90;;;;;;4915671;29;20493;-78
2023/08/10 00:59:18;;;;;;;1.30;1.20;;;18.80;65.90;;;;;;4900378;29;20067;-78
2023/08/10 01:01:44;;;;;;;2.10;1.20;;;18.80;65.90;;;;;;4899987;29;20032;-78
2023/08/10 01:04:10;;;;;;;1.00;1.00;;;18.80;65.90;;;;;;4900898;29;20036;-78
2023/08/10 01:06:53;;;;;;;1.33;1.20;;;18.80;66.00;;;;;;4899978;29;20040;-78
2023/08/10 01:09:45;;;;;;;1.83;1.20;;;18.80;66.10;;;;;;4900671;29;20107;-78
2023/08/10 01:12:20;;;;;;;1.45;1.20;;;18.70;66.20;;;;;;4901117;29;20032;-78
2023/08/10 01:15:02;;;;;;;1.35;1.25;;;18.70;66.10;;;;;;4900390;29;20048;-78
2023/08/10 01:17:33;;;;;;;1.58;1.20;;;18.70;66.20;;;;;;4915349;29;20039;-78
2023/08/10 01:20:03;;;;;;;1.92;1.00;;;18.70;66.10;;;;;;4916114;29;20041;-79
2023/08/10 01:22:55;;;;;;;1.98;1.20;;;18.70;66.20;;;;;;4900426;29;20100;-78
2023/08/10 01:25:23;;;;;;;1.45;1.10;;;18.70;66.30;;;;;;4900376;29;20108;-78
2023/08/10 01:27:49;;;;;;;1.25;1.15;;;18.70;66.20;;;;;;4900080;29;20390;-78
2023/08/10 01:30:15;;;;;;;1.45;1.15;;;18.70;66.30;;;;;;4899704;29;20048;-78
2023/08/10 01:32:41;;;;;;;1.75;1.15;;;18.60;66.30;;;;;;4899437;29;20063;-78
2023/08/10 01:35:07;;;;;;;1.73;1.10;;;18.60;66.30;;;;;;4899451;29;20096;-78
2023/08/10 01:37:33;;;;;;;1.85;1.25;;;18.60;66.30;;;;;;4883969;29;20029;-78
2023/08/10 01:40:00;;;;;;;1.42;1.10;;;18.60;66.30;;;;;;4915414;29;20127;-78
2023/08/10 01:42:26;;;;;;;1.20;1.10;;;18.60;66.40;;;;;;4883908;29;20087;-78
2023/08/10 01:44:52;;;;;;;1.38;1.20;;;18.60;66.40;;;;;;4898843;29;20124;-79
2023/08/10 01:47:43;;;;;;;1.40;1.20;;;18.60;66.40;;;;;;4899568;29;20450;-77
2023/08/10 01:50:09;;;;;;;2.00;1.20;;;18.60;66.40;;;;;;4899514;29;20033;-78
2023/08/10 01:52:42;;;;;;;1.30;1.20;;;18.60;66.40;;;;;;4899314;29;20036;-78
2023/08/10 01:55:09;;;;;;;1.25;1.15;;;18.60;66.50;;;;;;4899282;29;20119;-77
2023/08/10 01:57:36;;;;;;;1.20;1.10;;;18.60;66.50;;;;;;4884365;29;20041;-78
2023/08/10 02:00:03;;;;;;;2.20;1.20;;;18.60;66.50;;;;;;4914697;29;20124;-78
2023/08/10 02:02:41;;;;;;;1.40;1.00;;;18.60;66.60;;;;;;4899985;29;20040;-78
2023/08/10 02:05:10;;;;;;;1.23;1.13;;;18.60;66.50;;;;;;4898821;29;20103;-78
2023/08/10 02:07:36;;;;;;;1.02;0.98;;;18.60;66.60;;;;;;4883585;29;20025;-78
2023/08/10 02:10:02;;;;;;;1.27;1.17;;;18.50;66.50;;;;;;4898996;29;20036;-78
2023/08/10 02:12:27;;;;;;;1.58;1.10;;;18.60;66.60;;;;;;4884117;29;20044;-78
2023/08/10 02:14:53;;;;;;;2.30;1.38;;;18.50;66.60;;;;;;4898684;29;20032;-78
2023/08/10 02:17:19;;;;;;;1.30;1.13;;;18.50;66.60;;;;;;4898431;29;20131;-78
2023/08/10 02:19:45;;;;;;;1.83;1.13;;;18.50;66.60;;;;;;4898796;29;20398;-78
2023/08/10 02:22:10;;;;;;;1.08;0.98;;;18.50;66.60;;;;;;4883732;29;20419;-78
2023/08/10 02:24:36;;;;;;;1.50;1.10;;;18.50;66.70;;;;;;4914186;29;20132;-78
2023/08/10 02:27:02;;;;;;;1.27;1.17;;;18.50;66.70;;;;;;4883378;29;20067;-77
2023/08/10 02:29:28;;;;;;;1.40;1.05;;;18.50;66.70;;;;;;4898401;29;20067;-78
2023/08/10 02:31:54;;;;;;;2.35;1.40;;;18.50;66.80;;;;;;4898479;29;20524;-78
2023/08/10 02:34:20;;;;;;;1.10;1.00;;;18.40;66.70;;;;;;4898715;29;20067;-77
2023/08/10 02:36:45;;;;;;;0.98;0.98;;;18.40;66.70;;;;;;4883041;29;20037;-78
2023/08/10 02:39:11;;;;;;;1.50;1.30;;;18.40;66.70;;;;;;4913968;29;20036;-77
2023/08/10 02:41:37;;;;;;;1.58;1.20;;;18.40;66.80;;;;;;4882547;29;20045;-77
2023/08/10 02:44:03;;;;;;;2.35;1.05;;;18.40;66.80;;;;;;4914224;29;20096;-77
2023/08/10 02:46:28;;;;;;;1.52;1.40;;;18.40;66.80;;;;;;4898235;29;20044;-77
2023/08/10 02:48:54;;;;;;;1.58;1.25;;;18.40;66.80;;;;;;4914159;29;20473;-78
2023/08/10 02:51:20;;;;;;;1.30;1.20;;;18.40;66.80;;;;;;4898085;29;20051;-78
2023/08/10 02:53:46;;;;;;;1.52;1.13;;;18.40;66.80;;;;;;4882522;29;20044;-78
2023/08/10 02:56:12;;;;;;;2.25;1.27;;;18.30;66.80;;;;;;4898077;29;20135;-77
2023/08/10 02:58:38;;;;;;;1.77;1.48;;;18.30;66.90;;;;;;4897939;29;20035;-78
2023/08/10 03:01:08;;;;;;;1.55;1.23;;;18.30;66.90;;;;;;4897814;29;20097;-78
2023/08/10 03:03:35;;;;;;;1.10;1.00;;;18.30;67.00;;;;;;4882500;29;20051;-78
2023/08/10 03:06:01;;;;;;;1.13;1.02;;;18.30;67.00;;;;;;4882215;29;20101;-78
2023/08/10 03:08:27;;;;;;;1.30;1.20;;;18.30;67.00;;;;;;4897995;29;20041;-78
2023/08/10 03:10:54;;;;;;;2.03;1.30;;;18.30;67.00;;;;;;4897740;29;20438;-77
2023/08/10 03:13:21;;;;;;;1.65;1.17;;;18.30;67.10;;;;;;4897868;29;20488;-78
2023/08/10 03:15:47;;;;;;;1.98;1.20;;;18.20;67.00;;;;;;4898512;29;20119;-78
2023/08/10 03:18:13;;;;;;;1.15;1.05;;;18.20;67.10;;;;;;4897698;29;20045;-77
2023/08/10 03:20:40;;;;;;;1.38;1.27;;;18.20;67.10;;;;;;4897650;29;20032;-77
2023/08/10 03:23:05;;;;;;;1.65;1.23;;;18.20;67.10;;;;;;4882088;29;20035;-78
2023/08/10 03:25:32;;;;;;;1.50;1.20;;;18.20;67.10;;;;;;4897484;29;20140;-78
2023/08/10 03:27:59;;;;;;;1.45;1.20;;;18.20;67.20;;;;;;4882029;29;20405;-78
2023/08/10 03:30:25;;;;;;;1.35;1.25;;;18.20;67.20;;;;;;4897383;29;20036;-78
2023/08/10 03:32:51;;;;;;;1.63;1.30;;;18.20;67.20;;;;;;4882562;29;20028;-78
2023/08/10 03:35:17;;;;;;;1.50;1.30;;;18.20;67.20;;;;;;4881965;29;20044;-78
2023/08/10 03:37:43;;;;;;;1.05;0.98;;;18.10;67.30;;;;;;4897389;29;20371;-78
2023/08/10 03:40:09;;;;;;;1.17;1.10;;;18.20;67.30;;;;;;4898020;29;20040;-78
2023/08/10 03:42:35;;;;;;;1.40;1.30;;;18.10;67.20;;;;;;4897399;29;20045;-77
2023/08/10 03:45:04;;;;;;;1.20;1.10;;;18.10;67.30;;;;;;4881898;29;20085;-78
2023/08/10 03:47:30;;;;;;;1.83;1.30;;;18.10;67.30;;;;;;4897824;29;20039;-78
2023/08/10 03:49:55;;;;;;;2.03;1.30;;;18.10;68.00;;;;;;4882003;29;20028;-79
2023/08/10 03:52:23;;;;;;;1.15;1.10;;;18.10;67.40;;;;;;4897231;29;20029;-78
2023/08/10 03:54:49;;;;;;;1.60;1.20;;;18.10;67.40;;;;;;4897359;29;20036;-78
2023/08/10 03:57:15;;;;;;;1.50;1.40;;;18.10;67.40;;;;;;4913650;29;20039;-79
2023/08/10 03:59:41;;;;;;;2.13;1.40;;;18.10;67.40;;;;;;4897832;29;20135;-79
2023/08/10 04:02:08;;;;;;;1.70;1.23;;;18.10;67.40;;;;;;4897081;29;20565;-79
2023/08/10 04:04:35;;;;;;;1.75;1.30;;;18.00;67.40;;;;;;4897725;29;20067;-79
2023/08/10 04:07:00;;;;;;;2.03;1.25;;;18.00;67.40;;;;;;4896799;29;20033;-79
2023/08/10 04:09:26;;;;;;;1.63;1.40;;;18.00;67.50;;;;;;4912777;29;20045;-78
2023/08/10 04:11:52;;;;;;;1.88;1.30;;;18.00;67.50;;;;;;4882311;29;20037;-79
2023/08/10 04:14:17;;;;;;;2.03;1.50;;;18.00;67.50;;;;;;4881713;29;20036;-78
2023/08/10 04:16:43;;;;;;;1.90;1.30;;;18.00;67.50;;;;;;4896748;29;20036;-79
2023/08/10 04:19:10;;;;;;;1.17;1.08;;;18.00;67.60;;;;;;4896853;29;20043;-79
2023/08/10 04:21:36;;;;;;;2.20;1.50;;;18.00;67.60;;;;;;4897646;29;20041;-79
2023/08/10 04:24:02;;;;;;;1.88;1.40;;;18.00;67.60;;;;;;4881765;29;20045;-78
2023/08/10 04:26:27;;;;;;;2.13;1.45;;;18.00;67.60;;;;;;4881140;29;20036;-79
2023/08/10 04:28:53;;;;;;;3.25;1.50;;;18.00;67.60;;;;;;4882313;29;20489;-79
2023/08/10 04:31:19;;;;;;;1.52;1.30;;;18.00;67.70;;;;;;4897067;29;20033;-79
2023/08/10 04:33:45;;;;;;;1.40;1.13;;;18.00;67.70;;;;;;4881395;29;20482;-79
2023/08/10 04:36:11;;;;;;;1.50;1.30;;;18.00;67.70;;;;;;4913349;29;20505;-78
2023/08/10 04:38:37;;;;;;;1.33;1.23;;;18.00;67.70;;;;;;4913376;29;20045;-79
2023/08/10 04:41:02;;;;;;;1.45;1.30;;;18.00;67.80;;;;;;4882030;29;20036;-79
2023/08/10 04:43:28;;;;;;;1.30;1.20;;;18.00;67.80;;;;;;4882068;29;20037;-78
2023/08/10 04:45:54;;;;;;;1.70;1.27;;;18.00;67.80;;;;;;4897388;29;20347;-80
2023/08/10 04:48:20;;;;;;;1.35;1.25;;;18.00;67.80;;;;;;4913098;29;20430;-84
2023/08/10 04:50:45;;;;;;;1.65;1.45;;;17.90;67.80;;;;;;4881392;29;20435;-79
2023/08/10 04:53:11;;;;;;;1.48;1.30;;;18.00;67.90;;;;;;4881054;29;20394;-80
2023/08/10 04:55:37;;;;;;;1.30;1.20;;;17.90;67.90;;;;;;4881140;29;20044;-78
2023/08/10 04:58:03;;;;;;;2.05;1.42;;;17.90;67.90;;;;;;4899438;29;20133;-79
2023/08/10 05:00:29;;;;;;;1.35;1.20;;;17.90;67.90;;;;;;4900196;29;20386;-78
2023/08/10 05:02:54;;;;;;;2.40;1.52;;;17.90;67.90;;;;;;4900359;29;20440;-79
2023/08/10 05:05:21;;;;;;;1.92;1.55;;;17.90;67.90;;;;;;4900342;29;20539;-78
2023/08/10 05:07:47;;;;;;;2.15;1.60;;;17.90;67.90;;;;;;4884458;29;20045;-78
2023/08/10 05:10:12;;;;;;;1.50;1.35;;;17.90;67.90;;;;;;4899849;29;20092;-78
2023/08/10 05:12:38;;;;;;;1.65;1.40;;;17.90;68.00;;;;;;4915537;29;20104;-77
2023/08/10 05:15:05;;;;;;;1.77;1.42;;;17.90;68.00;;;;;;4899468;29;20032;-77
2023/08/10 05:17:31;;;;;;;2.15;1.80;;;17.90;68.00;;;;;;4884253;29;20509;-76
2023/08/10 05:19:58;;;;;;;1.67;1.55;;;17.90;68.00;;;;;;4899799;29;20067;-80
2023/08/10 05:22:25;;;;;;;2.35;1.42;;;17.90;68.00;;;;;;4899525;29;20036;-78
2023/08/10 05:24:51;;;;;;;1.73;1.52;;;17.90;68.00;;;;;;4900339;29;20046;-78
2023/08/10 05:27:16;;;;;;;1.85;1.65;;;17.90;68.10;;;;;;4884667;29;20517;-77
2023/08/10 05:29:42;;;;;;;1.67;1.58;;;17.90;68.10;;;;;;4884694;29;20032;-78
2023/08/10 05:32:08;;;;;;;2.72;1.80;;;17.90;68.10;;;;;;4899715;29;20068;-78
2023/08/10 05:34:34;;;;;;;2.22;1.60;;;17.90;68.10;;;;;;4915333;29;20470;-78
2023/08/10 05:36:59;;;;;;;2.15;1.70;;;17.90;68.10;;;;;;4899484;29;20033;-78
2023/08/10 05:39:25;;;;;;;2.55;1.70;;;18.00;68.20;;;;;;4899599;29;20084;-81
2023/08/10 05:41:51;;;;;;;1.70;1.40;;;17.90;68.10;;;;;;4884196;29;20506;-76
2023/08/10 05:44:17;;;;;;;2.05;1.67;;;18.00;68.20;;;;;;4883940;29;20047;-81
2023/08/10 05:46:43;;;;;;;2.35;1.80;;;18.00;68.20;;;;;;4883562;29;20078;-79
2023/08/10 05:49:08;;;;;;;1.40;1.30;;;18.00;68.20;;;;;;4899643;29;20120;-77
2023/08/10 05:51:34;;;;;;;1.65;1.42;;;18.00;68.20;;;;;;4899206;29;20048;-77
2023/08/10 05:54:00;;;;;;;2.13;1.70;;;18.00;68.20;;;;;;4883279;29;20047;-77
2023/08/10 05:56:25;;;;;;;1.92;1.60;;;18.00;68.20;;;;;;4883567;29;20043;-77
2023/08/10 05:58:51;;;;;;;1.80;1.55;;;18.00;68.20;;;;;;4914604;29;20036;-77
2023/08/10 06:01:17;;;;;;;1.95;1.60;;;18.00;68.20;;;;;;4899356;29;20051;-77
2023/08/10 06:03:43;;;;;;;2.17;1.60;;;18.00;68.20;;;;;;4898834;29;20036;-78
2023/08/10 06:06:09;;;;;;;2.53;1.77;;;18.00;68.30;;;;;;4898678;29;20096;-77
2023/08/10 06:08:35;;;;;;;2.00;1.50;;;18.00;68.30;;;;;;4897975;29;20041;-78
2023/08/10 06:11:02;;;;;;;1.85;1.63;;;18.00;68.20;;;;;;4898855;29;20037;-78
2023/08/10 06:13:28;;;;;;;1.92;1.58;;;18.00;68.30;;;;;;4883455;29;20036;-77
2023/08/10 06:15:53;;;;;;;2.58;1.50;;;18.10;68.30;;;;;;4914602;29;20099;-77
2023/08/10 06:18:19;;;;;;;2.45;1.80;;;18.10;68.30;;;;;;4883442;29;20453;-78
2023/08/10 06:20:45;;;;;;;2.38;1.80;;;18.10;68.30;;;;;;4883978;29;20123;-77
2023/08/10 06:23:12;;;;;;;1.75;1.48;;;18.10;68.30;;;;;;4914332;29;20490;-78
2023/08/10 06:25:38;;;;;;;1.70;1.60;;;18.10;68.30;;;;;;4883228;29;20041;-77
2023/08/10 06:28:04;;;;;;;1.95;1.42;;;18.10;68.20;;;;;;4898470;29;20067;-78
2023/08/10 06:30:31;;;;;;;1.70;1.60;;;18.10;68.20;;;;;;4914224;29;20032;-77
2023/08/10 06:32:56;;;;;;;1.75;1.55;;;18.10;68.20;;;;;;4882754;29;20040;-77
2023/08/10 06:35:22;;;;;;;1.88;1.48;;;18.10;68.20;;;;;;4898418;29;20109;-78
2023/08/10 06:37:50;;;;;;;1.70;1.40;;;18.20;68.30;;;;;;4883057;29;20109;-77
2023/08/10 06:40:16;;;;;;;2.22;1.58;;;18.20;68.30;;;;;;4897917;29;20036;-78
2023/08/10 06:42:42;;;;;;;2.15;1.42;;;18.20;68.20;;;;;;4897977;29;20119;-78
2023/08/10 06:45:30;;;;;;;1.83;1.60;;;18.20;68.20;;;;;;4901063;29;20044;-78
2023/08/10 06:47:56;;;;;;;1.70;1.48;;;18.20;68.20;;;;;;4882690;29;20033;-78
2023/08/10 06:50:22;;;;;;;1.77;1.30;;;18.20;68.20;;;;;;4882603;29;20478;-77
2023/08/10 06:52:48;;;;;;;1.42;1.30;;;18.20;68.20;;;;;;4882916;29;20056;-77
2023/08/10 06:55:14;;;;;;;1.67;1.45;;;18.20;68.10;;;;;;4898049;29;20060;-78
2023/08/10 06:57:40;;;;;;;1.80;1.58;;;18.30;68.20;;;;;;4882569;29;20040;-78
2023/08/10 07:00:07;;;;;;;3.15;1.60;;;18.30;68.20;;;;;;4897845;29;20398;-77
2023/08/10 07:02:34;;;;;;;2.33;1.52;;;18.20;68.10;;;;;;4883336;29;20083;-78
2023/08/10 07:05:00;;;;;;;1.58;1.48;;;18.30;68.20;;;;;;4882385;29;20406;-77
2023/08/10 07:07:29;;;;;;;1.65;1.50;;;18.30;68.20;;;;;;4882096;29;20040;-77
2023/08/10 07:09:55;;;;;;;1.83;1.40;;;18.30;68.10;;;;;;4913191;29;20045;-78
2023/08/10 07:12:20;;;;;;;2.05;1.50;;;18.30;68.10;;;;;;4897745;29;20044;-78
2023/08/10 07:14:46;;;;;;;4.05;1.55;;;18.40;68.20;;;;;;4882228;29;20147;-77
2023/08/10 07:17:12;;;;;;;1.65;1.50;;;18.30;68.10;;;;;;4897405;29;20156;-77
2023/08/10 07:19:38;;;;;;;2.45;1.80;;;18.30;68.10;;;;;;4913294;29;20033;-78
2023/08/10 07:22:04;;;;;;;2.25;1.75;;;18.30;68.10;;;;;;4897740;29;20029;-77
2023/08/10 07:24:29;;;;;;;1.90;1.70;;;18.40;68.10;;;;;;4898503;29;20033;-78
2023/08/10 07:26:56;;;;;;;2.25;1.58;;;18.40;68.10;;;;;;4897500;29;20454;-78
2023/08/10 07:29:23;;;;;;;1.50;1.40;;;18.40;68.10;;;;;;4897459;29;20497;-78
2023/08/10 07:31:49;;;;;;;1.60;1.50;;;18.40;68.10;;;;;;4897522;29;20447;-77
2023/08/10 07:34:14;;;;;;;1.55;1.45;;;18.40;68.10;;;;;;4897253;29;20045;-77
2023/08/10 07:36:40;;;;;;;2.30;1.63;;;18.40;68.10;;;;;;4897312;29;20085;-77
2023/08/10 07:39:07;;;;;;;2.08;1.73;;;18.40;68.10;;;;;;4898168;29;20036;-77
2023/08/10 07:41:32;;;;;;;2.10;1.60;;;18.40;68.10;;;;;;4897395;29;20033;-77
2023/08/10 07:43:58;;;;;;;1.73;1.50;;;18.40;68.00;;;;;;4897611;29;20111;-78
2023/08/10 07:46:26;;;;;;;1.58;1.48;;;18.50;68.10;;;;;;4897222;29;20044;-76
2023/08/10 07:48:52;;;;;;;1.70;1.35;;;18.50;68.00;;;;;;4897002;29;20072;-76
2023/08/10 07:51:18;;;;;;;1.50;1.38;;;18.50;68.00;;;;;;4897564;29;20036;-76
2023/08/10 07:53:44;;;;;;;1.40;1.30;;;18.50;68.00;;;;;;4897308;29;20473;-76
2023/08/10 07:56:11;;;;;;;2.53;1.67;;;18.60;68.00;;;;;;4898029;29;20044;-77
2023/08/10 07:58:37;;;;;;;2.70;1.40;;;18.60;68.00;;;;;;4897403;29;20044;-76
2023/08/10 08:01:06;;;;;;;1.52;1.40;;;18.60;68.00;;;;;;4881493;29;20028;-77
2023/08/10 08:03:32;;;;;;;1.45;1.35;;;18.60;67.90;;;;;;4896762;29;20044;-77
2023/08/10 08:05:58;;;;;;;1.95;1.50;;;18.60;67.80;;;;;;4897065;29;20406;-76
2023/08/10 08:08:24;;;;;;;2.05;1.60;;;18.70;67.80;;;;;;4897379;29;20036;-82
2023/08/10 08:10:49;;;;;;;2.10;1.50;;;18.70;67.70;;;;;;4897949;29;20044;-85
2023/08/10 08:13:15;;;;;;;1.73;1.48;;;18.80;67.70;;;;;;4881686;29;20104;-77
2023/08/10 08:15:43;;;;;;;1.85;1.40;;;18.80;67.60;;;;;;4897224;29;20147;-80
2023/08/10 08:18:41;;;;;;;1.63;1.35;;;18.90;67.50;;;;;;4897173;29;20036;-79
2023/08/10 08:21:14;;;;;;;1.30;1.20;;;18.90;67.50;;;;;;4898263;29;20035;-78
2023/08/10 08:23:40;;;;;;;1.27;1.17;;;19.00;67.30;;;;;;4897068;29;20028;-82
2023/08/10 08:26:06;;;;;;;1.30;1.20;;;19.10;67.20;;;;;;4896874;29;20489;-78
2023/08/10 08:28:32;;;;;;;1.95;1.35;;;19.10;67.00;;;;;;4896759;29;20133;-80
2023/08/10 08:30:58;;;;;;;1.42;1.27;;;19.20;66.90;;;;;;4896908;29;20028;-79
2023/08/10 08:33:24;;;;;;;1.40;1.30;;;19.30;66.90;;;;;;4884490;29;20067;-79
2023/08/10 08:35:50;;;;;;;1.55;1.40;;;19.30;66.70;;;;;;4916224;29;20068;-79
2023/08/10 08:38:17;;;;;;;1.58;1.40;;;19.40;66.60;;;;;;4901145;29;20036;-79
2023/08/10 08:40:44;;;;;;;1.30;1.13;;;19.50;66.60;;;;;;4901562;29;20119;-79
2023/08/10 08:43:11;;;;;;;1.73;1.42;;;19.50;66.40;;;;;;4900711;29;20036;-79
2023/08/10 08:45:39;;;;;;;1.30;1.20;;;19.60;66.30;;;;;;4916073;29;20099;-79
2023/08/10 08:48:07;;;;;;;1.45;1.33;;;19.70;66.30;;;;;;4901101;29;20044;-79
2023/08/10 08:50:35;;;;;;;1.50;1.27;;;19.80;66.10;;;;;;4900307;29;20043;-78
2023/08/10 08:53:05;;;;;;;1.55;1.20;;;19.90;66.00;;;;;;4900477;29;20072;-78
2023/08/10 08:55:32;;;;;;;1.98;1.27;;;20.00;65.90;;;;;;4900189;29;20049;-78
2023/08/10 08:57:58;;;;;;;1.60;1.45;;;20.00;65.80;;;;;;4901074;29;20557;-78
2023/08/10 09:00:24;;;;;;;1.33;1.23;;;20.10;65.70;;;;;;4915777;29;20478;-78
2023/08/10 09:02:51;;;;;;;1.35;1.17;;;20.20;65.60;;;;;;4900305;29;20039;-78
2023/08/10 09:05:18;;;;;;;1.35;1.13;;;20.30;65.60;;;;;;4899690;29;20072;-78
2023/08/10 09:07:44;;;;;;;2.10;1.20;;;20.40;65.50;;;;;;4900612;29;20377;-78
2023/08/10 09:10:10;;;;;;;1.27;1.13;;;20.50;65.50;;;;;;4900304;29;20465;-78
2023/08/10 09:12:37;;;;;;;1.20;1.10;;;20.60;65.40;;;;;;4915532;29;20052;-78
2023/08/10 09:15:06;;;;;;;1.20;1.10;;;20.60;65.20;;;;;;4916484;29;20035;-78
2023/08/10 09:17:33;;;;;;;1.15;1.08;;;20.70;65.20;;;;;;4899763;29;20036;-79
2023/08/10 09:19:59;;;;;;;1.15;1.05;;;20.80;65.20;;;;;;4899481;29;20041;-79
2023/08/10 09:22:32;;;;;;;1.10;1.00;;;20.90;65.10;;;;;;4900457;29;20480;-78
2023/08/10 09:24:58;;;;;;;1.52;0.90;;;21.00;65.10;;;;;;4900012;29;20172;-79
2023/08/10 09:27:27;;;;;;;1.02;0.93;;;21.00;64.90;;;;;;4899514;29;20504;-80
2023/08/10 09:29:57;;;;;;;1.00;0.90;;;21.10;64.90;;;;;;4899485;29;20116;-78
2023/08/10 09:32:23;;;;;;;1.02;1.00;;;21.20;64.90;;;;;;4899512;29;20028;-80
2023/08/10 09:34:49;;;;;;;1.10;1.00;;;21.30;64.90;;;;;;4899275;29;20104;-78
2023/08/10 09:37:15;;;;;;;1.00;0.88;;;21.40;65.00;;;;;;4899563;29;20064;-78
2023/08/10 09:39:40;;;;;;;0.90;0.90;;;21.40;64.80;;;;;;4900222;29;20462;-78
2023/08/10 09:42:06;;;;;;;1.27;0.90;;;21.50;64.80;;;;;;4900924;29;20454;-77
2023/08/10 09:44:46;;;;;;;1.10;1.00;;;21.60;64.90;;;;;;4899056;29;20039;-77
2023/08/10 09:47:14;;;;;;;1.40;1.23;;;21.70;64.90;;;;;;4899563;29;20032;-78
2023/08/10 09:50:04;;;;;;;1.20;0.95;;;21.70;64.70;;;;;;4915746;29;20024;-77
2023/08/10 09:52:30;;;;;;;1.10;1.00;;;21.90;64.90;;;;;;4899317;29;20039;-79
2023/08/10 09:54:57;;;;;;;1.10;1.00;;;21.90;64.70;;;;;;4883554;29;20036;-78
2023/08/10 09:57:24;;;;;;;1.10;1.00;;;22.00;64.70;;;;;;4883217;29;20029;-79
2023/08/10 09:59:51;;;;;;;1.33;1.10;;;22.10;64.70;;;;;;4883337;29;20037;-79
2023/08/10 10:02:18;;;;;;;1.35;0.90;;;22.10;64.70;;;;;;4899044;29;20032;-78
2023/08/10 10:04:45;;;;;;;1.13;1.00;;;22.20;64.70;;;;;;4898675;29;20463;-78
2023/08/10 10:07:12;;;;;;;0.82;0.82;;;22.30;64.80;;;;;;4900199;29;20035;-78
2023/08/10 10:09:39;;;;;;;1.30;1.20;;;22.30;64.70;;;;;;4899111;29;20127;-78
2023/08/10 10:12:11;;;;;;;1.10;0.90;;;22.30;64.70;;;;;;4899279;29;20071;-81
2023/08/10 10:14:45;;;;;;;1.35;0.98;;;22.40;64.70;;;;;;4899780;29;20025;-76
2023/08/10 10:17:18;;;;;;;1.00;0.90;;;22.50;64.80;;;;;;4900279;29;20037;-80
2023/08/10 10:19:45;;;;;;;1.00;1.00;;;22.60;64.80;;;;;;4899742;29;20032;-82
2023/08/10 10:22:11;;;;;;;1.23;1.10;;;22.50;64.60;;;;;;4883890;29;20033;-82
2023/08/10 10:24:43;;;;;;;0.70;0.70;;;22.60;64.70;;;;;;4883639;29;20043;-82
2023/08/10 10:27:13;;;;;;;0.82;0.82;;;22.70;64.70;;;;;;4898420;29;20070;-82
2023/08/10 10:29:55;;;;;;;0.80;0.80;;;22.80;64.70;;;;;;4900178;29;20032;-82
2023/08/10 10:32:22;;;;;;;1.00;1.00;;;22.80;64.70;;;;;;4899497;29;20068;-82
2023/08/10 10:34:52;;;;;;;1.20;1.10;;;22.90;64.70;;;;;;4899353;29;20043;-82
2023/08/10 10:37:28;;;;;;;1.05;0.90;;;23.00;64.60;;;;;;4883485;29;20060;-81
2023/08/10 10:40:16;;;;;;;1.10;0.93;;;23.00;64.50;;;;;;4899240;29;20043;-82
2023/08/10 10:43:10;;;;;;;1.10;1.00;;;23.20;64.70;;;;;;4898692;29;20025;-82
2023/08/10 10:45:42;;;;;;;0.87;0.87;;;23.30;64.60;;;;;;4896183;29;20045;-82
2023/08/10 10:48:12;;;;;;;1.17;1.00;;;23.40;64.40;;;;;;4897845;29;20834;-82
2023/08/10 10:50:39;;;;;;;1.10;1.00;;;23.40;64.30;;;;;;4882931;29;20116;-82
2023/08/10 10:53:06;;;;;;;1.00;0.82;;;23.50;64.20;;;;;;4898328;29;20032;-82
2023/08/10 10:55:34;;;;;;;1.17;0.90;;;23.60;64.30;;;;;;4898270;29;20036;-82
2023/08/10 10:58:02;;;;;;;1.50;1.02;;;23.70;64.30;;;;;;4914128;29;20033;-81
2023/08/10 11:00:29;;;;;;;1.23;1.13;;;23.80;64.30;;;;;;4899551;29;20044;-81
2023/08/10 11:02:55;;;;;;;1.42;1.20;;;23.90;64.30;;;;;;4898874;29;20099;-82
2023/08/10 11:05:21;;;;;;;1.25;1.05;;;23.90;64.20;;;;;;4898887;29;20037;-82
2023/08/10 11:07:49;;;;;;;1.30;1.20;;;24.00;64.30;;;;;;4882559;29;20040;-81
2023/08/10 11:10:17;;;;;;;1.10;0.98;;;24.00;64.40;;;;;;4897939;29;20025;-80
2023/08/10 11:12:45;;;;;;;0.90;0.90;;;24.10;64.50;;;;;;4897857;29;20040;-79
2023/08/10 11:15:13;;;;;;;1.05;0.95;;;24.10;64.60;;;;;;4882763;29;20040;-82
2023/08/10 11:17:41;;;;;;;1.20;1.10;;;24.20;64.60;;;;;;4897998;29;20426;-81
2023/08/10 11:20:18;;;;;;;1.08;0.98;;;24.20;64.80;;;;;;4913409;29;20486;-80
2023/08/10 11:22:45;;;;;;;1.25;0.95;;;24.20;64.90;;;;;;4897973;29;20041;-81
2023/08/10 11:25:24;;;;;;;1.38;1.08;;;24.20;65.10;;;;;;4898360;29;20462;-81
2023/08/10 11:27:52;;;;;;;0.98;0.95;;;24.30;65.50;;;;;;4897653;29;20056;-81
2023/08/10 11:30:20;;;;;;;0.98;0.98;;;24.30;65.60;;;;;;4897436;29;20041;-82
2023/08/10 11:32:48;;;;;;;1.48;1.20;;;24.40;65.80;;;;;;4897712;29;20071;-79
2023/08/10 11:35:18;;;;;;;1.02;1.00;;;24.40;66.00;;;;;;4897412;29;20040;-80
2023/08/10 11:37:43;;;;;;;1.50;1.30;;;24.40;66.20;;;;;;4897480;29;20039;-79
2023/08/10 11:40:18;;;;;;;1.13;1.02;;;24.40;66.30;;;;;;4898876;29;20028;-83
2023/08/10 11:42:49;;;;;;;1.33;1.08;;;24.40;66.60;;;;;;4897681;29;20028;-80
2023/08/10 11:45:17;;;;;;;1.23;1.10;;;24.50;66.60;;;;;;4897837;29;20056;-81
2023/08/10 11:47:53;;;;;;;0.95;0.88;;;24.50;66.80;;;;;;4897361;29;20056;-80
2023/08/10 11:50:21;;;;;;;1.05;1.05;;;24.50;67.00;;;;;;4897679;29;20059;-82
2023/08/10 11:52:49;;;;;;;1.15;1.05;;;24.50;66.20;;;;;;4898174;29;20033;-83
2023/08/10 11:55:17;;;;;;;1.98;1.77;;;24.60;65.20;;;;;;4912948;29;20044;-81
2023/08/10 11:57:48;;;;;;;2.00;1.60;;;24.50;64.30;;;;;;4897264;29;20036;-80
2023/08/10 12:00:25;;;;;;;1.85;1.50;;;24.50;63.50;;;;;;4882348;29;20032;-81
2023/08/10 12:03:02;;;;;;;1.80;1.48;;;24.60;62.80;;;;;;4899212;29;20080;-80
2023/08/10 12:05:40;;;;;;;2.38;1.60;;;24.50;62.60;;;;;;4881860;29;20040;-80
2023/08/10 12:08:11;;;;;;;2.42;1.80;;;24.60;62.20;;;;;;4916335;29;20033;-82
2023/08/10 12:10:48;;;;;;;1.60;1.50;;;24.60;61.80;;;;;;4901503;29;20036;-79
2023/08/10 12:13:19;;;;;;;1.30;1.20;;;24.60;61.50;;;;;;4901385;29;20064;-79
2023/08/10 12:15:47;;;;;;;2.65;1.92;;;24.60;61.50;;;;;;4900988;29;20048;-79
2023/08/10 12:18:20;;;;;;;1.65;1.52;;;24.50;60.90;;;;;;4885377;29;20043;-77
2023/08/10 12:20:48;;;;;;;2.55;1.73;;;24.50;60.40;;;;;;4901183;29;20025;-78
2023/08/10 12:23:14;;;;;;;2.78;1.55;;;24.50;60.20;;;;;;4901140;29;20036;-78
2023/08/10 12:25:41;;;;;;;2.33;1.67;;;24.60;59.90;;;;;;4900732;29;20044;-77
2023/08/10 12:28:07;;;;;;;2.30;1.50;;;24.50;59.90;;;;;;4900943;29;20051;-75
2023/08/10 12:30:34;;;;;;;1.67;1.40;;;24.60;59.80;;;;;;4900755;29;20051;-76
2023/08/10 12:33:01;;;;;;;2.38;1.33;;;24.50;59.80;;;;;;4900690;29;20055;-77
2023/08/10 12:35:27;;;;;;;1.70;1.35;;;24.60;59.70;;;;;;4884933;29;20036;-76
2023/08/10 12:37:53;;;;;;;1.42;1.23;;;24.60;59.50;;;;;;4901484;29;20040;-77
2023/08/10 12:40:19;;;;;;;1.88;1.30;;;24.60;59.60;;;;;;4900153;29;20064;-78
2023/08/10 12:42:45;;;;;;;1.85;1.30;;;24.60;59.30;;;;;;4901466;29;20024;-77
2023/08/10 12:45:12;;;;;;;1.63;1.52;;;24.60;59.00;;;;;;4885271;29;20506;-88
2023/08/10 12:47:39;;;;;;;2.28;1.70;;;24.60;58.90;;;;;;4900496;29;20466;-78
2023/08/10 12:50:06;;;;;;;1.98;1.60;;;24.60;59.00;;;;;;4916143;29;20064;-78